SFJ26 RJBB-RJTT
Flight info
| Callsign | SFJ26 |
|---|---|
| Flight time | 0h 42m |
| Altitude | 29000 |
| Route | SOVRI UPRAL YAGYU SHTLE Y71 XAC |
| Aircraft | A20N/M-SDE2E3FGHIRWXY/LB1 |
Departure
| Time | 2026-02-17 09:14 |
|---|---|
| Airport | Kansai International Airport (RJBB) |
Arrival
| Time | 2026-02-17 09:56 |
|---|---|
| Airport | Tokyo Haneda International Airport (RJTT) |
| Time | Latitude | Longitude | Altitude | Speed | Heading |
|---|---|---|---|---|---|
| 2026-02-17 08:51 | 34.43192 | 135.24217 | 13 ft | 0 kts | 319° |
| 2026-02-17 09:00 | 34.43188 | 135.24221 | 13 ft | 1 kts | 319° |
| 2026-02-17 09:00 | 34.43175 | 135.24235 | 13 ft | 3 kts | 319° |
| 2026-02-17 09:00 | 34.43160 | 135.24250 | 13 ft | 3 kts | 320° |
| 2026-02-17 09:01 | 34.43146 | 135.24265 | 13 ft | 3 kts | 319° |
| 2026-02-17 09:01 | 34.43132 | 135.24280 | 13 ft | 2 kts | 306° |
| 2026-02-17 09:01 | 34.43126 | 135.24299 | 13 ft | 2 kts | 277° |
| 2026-02-17 09:01 | 34.43128 | 135.24320 | 13 ft | 3 kts | 244° |
| 2026-02-17 09:02 | 34.43137 | 135.24336 | 13 ft | 0 kts | 232° |
| 2026-02-17 09:04 | 34.43135 | 135.24333 | 13 ft | 1 kts | 231° |
| 2026-02-17 09:04 | 34.43127 | 135.24321 | 13 ft | 3 kts | 231° |
| 2026-02-17 09:04 | 34.43113 | 135.24300 | 13 ft | 4 kts | 231° |
| 2026-02-17 09:05 | 34.43092 | 135.24269 | 13 ft | 5 kts | 231° |
| 2026-02-17 09:05 | 34.43066 | 135.24230 | 13 ft | 7 kts | 231° |
| 2026-02-17 09:05 | 34.43013 | 135.24202 | 13 ft | 10 kts | 174° |
| 2026-02-17 09:05 | 34.42937 | 135.24178 | 13 ft | 14 kts | 226° |
| 2026-02-17 09:06 | 34.42869 | 135.24077 | 13 ft | 17 kts | 232° |
| 2026-02-17 09:06 | 34.42786 | 135.23956 | 13 ft | 20 kts | 230° |
| 2026-02-17 09:06 | 34.42699 | 135.23827 | 13 ft | 20 kts | 230° |
| 2026-02-17 09:07 | 34.42590 | 135.23567 | 12 ft | 18 kts | 312° |
| 2026-02-17 09:07 | 34.42684 | 135.23476 | 12 ft | 17 kts | 321° |
| 2026-02-17 09:07 | 34.42775 | 135.23387 | 12 ft | 17 kts | 321° |
| 2026-02-17 09:07 | 34.42869 | 135.23295 | 12 ft | 18 kts | 321° |
| 2026-02-17 09:08 | 34.42966 | 135.23200 | 12 ft | 18 kts | 321° |
| 2026-02-17 09:08 | 34.43067 | 135.23101 | 12 ft | 19 kts | 321° |
| 2026-02-17 09:08 | 34.43172 | 135.22998 | 12 ft | 20 kts | 321° |
| 2026-02-17 09:08 | 34.43279 | 135.22892 | 11 ft | 20 kts | 320° |
| 2026-02-17 09:09 | 34.43387 | 135.22787 | 11 ft | 20 kts | 322° |
| 2026-02-17 09:09 | 34.43496 | 135.22683 | 11 ft | 20 kts | 321° |
| 2026-02-17 09:09 | 34.43604 | 135.22578 | 10 ft | 20 kts | 321° |
| 2026-02-17 09:09 | 34.43712 | 135.22472 | 10 ft | 20 kts | 321° |
| 2026-02-17 09:10 | 34.43784 | 135.22349 | 9 ft | 19 kts | 249° |
| 2026-02-17 09:10 | 34.43705 | 135.22227 | 9 ft | 18 kts | 231° |
| 2026-02-17 09:10 | 34.43625 | 135.22108 | 9 ft | 18 kts | 231° |
| 2026-02-17 09:11 | 34.43466 | 135.21873 | 9 ft | 18 kts | 230° |
| 2026-02-17 09:11 | 34.43388 | 135.21757 | 9 ft | 18 kts | 231° |
| 2026-02-17 09:11 | 34.43310 | 135.21642 | 9 ft | 18 kts | 230° |
| 2026-02-17 09:11 | 34.43232 | 135.21527 | 9 ft | 18 kts | 231° |
| 2026-02-17 09:12 | 34.43155 | 135.21413 | 9 ft | 17 kts | 231° |
| 2026-02-17 09:12 | 34.43077 | 135.21300 | 9 ft | 17 kts | 230° |
| 2026-02-17 09:12 | 34.43017 | 135.21182 | 9 ft | 16 kts | 275° |
| 2026-02-17 09:12 | 34.43089 | 135.21091 | 9 ft | 15 kts | 321° |
| 2026-02-17 09:13 | 34.43148 | 135.21061 | 9 ft | 3 kts | 43° |
| 2026-02-17 09:13 | 34.43163 | 135.21078 | 9 ft | 3 kts | 49° |
| 2026-02-17 09:13 | 34.43241 | 135.21194 | 9 ft | 48 kts | 52° |
| 2026-02-17 09:13 | 34.43596 | 135.21726 | 9 ft | 113 kts | 51° |
| 2026-02-17 09:14 | 34.44205 | 135.22639 | 48 ft | 159 kts | 51° |
| 2026-02-17 09:14 | 34.44891 | 135.23723 | 558 ft | 159 kts | 50° |
| 2026-02-17 09:14 | 34.45556 | 135.24739 | 1284 ft | 152 kts | 49° |
| 2026-02-17 09:15 | 34.47394 | 135.25982 | 2006 ft | 179 kts | 352° |
| 2026-02-17 09:15 | 34.48669 | 135.25650 | 2402 ft | 195 kts | 339° |
| 2026-02-17 09:15 | 34.49813 | 135.24760 | 2978 ft | 198 kts | 308° |
| 2026-02-17 09:15 | 34.50338 | 135.23253 | 3603 ft | 199 kts | 278° |
| 2026-02-17 09:16 | 34.50065 | 135.21646 | 4219 ft | 202 kts | 237° |
| 2026-02-17 09:16 | 34.48965 | 135.20602 | 4898 ft | 209 kts | 201° |
| 2026-02-17 09:16 | 34.47510 | 135.20402 | 5616 ft | 215 kts | 178° |
| 2026-02-17 09:16 | 34.46014 | 135.20573 | 6302 ft | 220 kts | 179° |
| 2026-02-17 09:17 | 34.44458 | 135.20729 | 6919 ft | 229 kts | 173° |
| 2026-02-17 09:17 | 34.43055 | 135.21729 | 7519 ft | 245 kts | 130° |
| 2026-02-17 09:17 | 34.42866 | 135.23713 | 7799 ft | 261 kts | 79° |
| 2026-02-17 09:17 | 34.43172 | 135.26035 | 7265 ft | 279 kts | 81° |
| 2026-02-17 09:18 | 34.43447 | 135.28373 | 7376 ft | 290 kts | 81° |
| 2026-02-17 09:18 | 34.43733 | 135.30824 | 8124 ft | 300 kts | 81° |
| 2026-02-17 09:18 | 34.44025 | 135.33344 | 8992 ft | 307 kts | 81° |
| 2026-02-17 09:19 | 34.44867 | 135.38583 | 10333 ft | 338 kts | 73° |
| 2026-02-17 09:19 | 34.45480 | 135.41460 | 10660 ft | 368 kts | 76° |
| 2026-02-17 09:19 | 34.46045 | 135.44564 | 11137 ft | 392 kts | 77° |
| 2026-02-17 09:19 | 34.46594 | 135.47851 | 11858 ft | 407 kts | 78° |
| 2026-02-17 09:20 | 34.47146 | 135.51230 | 12872 ft | 414 kts | 78° |
| 2026-02-17 09:20 | 34.47708 | 135.54664 | 13884 ft | 422 kts | 78° |
| 2026-02-17 09:20 | 34.48282 | 135.58165 | 14871 ft | 429 kts | 78° |
| 2026-02-17 09:20 | 34.48872 | 135.61761 | 15848 ft | 438 kts | 78° |
| 2026-02-17 09:21 | 34.49467 | 135.65395 | 16803 ft | 446 kts | 78° |
| 2026-02-17 09:21 | 34.50070 | 135.69088 | 17737 ft | 454 kts | 78° |
| 2026-02-17 09:21 | 34.50681 | 135.72852 | 18652 ft | 461 kts | 78° |
| 2026-02-17 09:21 | 34.51331 | 135.76675 | 19535 ft | 468 kts | 73° |
| 2026-02-17 09:22 | 34.52465 | 135.80374 | 20369 ft | 472 kts | 62° |
| 2026-02-17 09:22 | 34.53544 | 135.84149 | 21167 ft | 483 kts | 76° |
| 2026-02-17 09:22 | 34.53985 | 135.88230 | 21946 ft | 492 kts | 86° |
| 2026-02-17 09:23 | 34.54579 | 135.96564 | 23432 ft | 505 kts | 77° |
| 2026-02-17 09:23 | 34.55503 | 136.00663 | 24123 ft | 508 kts | 67° |
| 2026-02-17 09:23 | 34.56790 | 136.04649 | 24782 ft | 513 kts | 64° |
| 2026-02-17 09:23 | 34.58117 | 136.08671 | 25416 ft | 520 kts | 65° |
| 2026-02-17 09:24 | 34.59374 | 136.12784 | 26017 ft | 527 kts | 66° |
| 2026-02-17 09:24 | 34.60606 | 136.17021 | 26594 ft | 533 kts | 67° |
| 2026-02-17 09:24 | 34.61833 | 136.21271 | 27149 ft | 538 kts | 66° |
| 2026-02-17 09:24 | 34.63075 | 136.25544 | 27655 ft | 543 kts | 66° |
| 2026-02-17 09:25 | 34.64335 | 136.29857 | 28109 ft | 548 kts | 66° |
| 2026-02-17 09:25 | 34.65606 | 136.34208 | 28268 ft | 552 kts | 66° |
| 2026-02-17 09:25 | 34.66708 | 136.38667 | 28292 ft | 554 kts | 75° |
| 2026-02-17 09:26 | 34.67615 | 136.47974 | 28298 ft | 557 kts | 85° |
| 2026-02-17 09:26 | 34.68126 | 136.57308 | 28298 ft | 557 kts | 84° |
| 2026-02-17 09:27 | 34.69035 | 136.71304 | 28297 ft | 557 kts | 84° |
| 2026-02-17 09:27 | 34.69624 | 136.80682 | 28308 ft | 557 kts | 84° |
| 2026-02-17 09:28 | 34.70205 | 136.90014 | 28313 ft | 557 kts | 84° |
| 2026-02-17 09:28 | 34.70778 | 136.99338 | 28313 ft | 557 kts | 84° |
| 2026-02-17 09:29 | 34.71344 | 137.08672 | 28313 ft | 557 kts | 84° |
| 2026-02-17 09:29 | 34.71906 | 137.18041 | 28313 ft | 558 kts | 84° |
| 2026-02-17 09:30 | 34.72734 | 137.32093 | 28312 ft | 558 kts | 84° |
| 2026-02-17 09:31 | 34.73547 | 137.46176 | 28312 ft | 558 kts | 85° |
| 2026-02-17 09:31 | 34.74079 | 137.55531 | 28312 ft | 558 kts | 85° |
| 2026-02-17 09:32 | 34.74619 | 137.64898 | 28399 ft | 557 kts | 85° |
| 2026-02-17 09:32 | 34.74347 | 137.74249 | 28422 ft | 558 kts | 98° |
| 2026-02-17 09:33 | 34.73301 | 137.83563 | 28432 ft | 557 kts | 98° |
| 2026-02-17 09:33 | 34.72407 | 137.92868 | 28443 ft | 557 kts | 97° |
| 2026-02-17 09:34 | 34.71542 | 138.02151 | 28455 ft | 556 kts | 95° |
| 2026-02-17 09:35 | 34.71467 | 138.16170 | 28477 ft | 553 kts | 88° |
| 2026-02-17 09:35 | 34.71525 | 138.25423 | 28493 ft | 549 kts | 89° |
| 2026-02-17 09:36 | 34.71536 | 138.34630 | 28509 ft | 549 kts | 89° |
| 2026-02-17 09:36 | 34.71553 | 138.43940 | 28215 ft | 555 kts | 89° |
| 2026-02-17 09:36 | 34.71559 | 138.48603 | 27596 ft | 554 kts | 90° |
| 2026-02-17 09:37 | 34.71562 | 138.53248 | 26977 ft | 549 kts | 90° |
| 2026-02-17 09:37 | 34.71564 | 138.57842 | 26364 ft | 547 kts | 90° |
| 2026-02-17 09:37 | 34.71564 | 138.62432 | 25750 ft | 544 kts | 90° |
| 2026-02-17 09:37 | 34.71563 | 138.66993 | 25138 ft | 541 kts | 90° |
| 2026-02-17 09:38 | 34.71559 | 138.71517 | 24529 ft | 538 kts | 90° |
| 2026-02-17 09:38 | 34.71554 | 138.76057 | 23916 ft | 534 kts | 90° |
| 2026-02-17 09:38 | 34.71547 | 138.80545 | 23309 ft | 530 kts | 90° |
| 2026-02-17 09:39 | 34.71519 | 138.89388 | 22106 ft | 521 kts | 90° |
| 2026-02-17 09:39 | 34.71502 | 138.93733 | 21738 ft | 511 kts | 90° |
| 2026-02-17 09:39 | 34.71485 | 138.97940 | 21675 ft | 493 kts | 91° |
| 2026-02-17 09:39 | 34.71546 | 139.02053 | 21667 ft | 487 kts | 84° |
| 2026-02-17 09:40 | 34.72128 | 139.06128 | 21427 ft | 490 kts | 75° |
| 2026-02-17 09:40 | 34.72946 | 139.10104 | 20974 ft | 484 kts | 75° |
| 2026-02-17 09:40 | 34.73680 | 139.14047 | 20523 ft | 478 kts | 76° |
| 2026-02-17 09:40 | 34.74394 | 139.17956 | 20076 ft | 474 kts | 76° |
| 2026-02-17 09:41 | 34.75120 | 139.21832 | 19598 ft | 471 kts | 76° |
| 2026-02-17 09:41 | 34.75852 | 139.25674 | 19069 ft | 467 kts | 76° |
| 2026-02-17 09:41 | 34.76578 | 139.29483 | 18542 ft | 462 kts | 76° |
| 2026-02-17 09:41 | 34.77299 | 139.33278 | 17993 ft | 458 kts | 76° |
| 2026-02-17 09:42 | 34.78008 | 139.37025 | 17426 ft | 455 kts | 76° |
| 2026-02-17 09:42 | 34.78712 | 139.40747 | 16839 ft | 452 kts | 76° |
| 2026-02-17 09:42 | 34.79403 | 139.44411 | 16259 ft | 449 kts | 76° |
| 2026-02-17 09:43 | 34.80783 | 139.51750 | 15093 ft | 442 kts | 76° |
| 2026-02-17 09:43 | 34.81460 | 139.55358 | 14517 ft | 439 kts | 76° |
| 2026-02-17 09:43 | 34.82336 | 139.58893 | 13938 ft | 432 kts | 64° |
| 2026-02-17 09:43 | 34.83806 | 139.62012 | 13417 ft | 420 kts | 49° |
| 2026-02-17 09:44 | 34.85770 | 139.64528 | 12939 ft | 405 kts | 34° |
| 2026-02-17 09:44 | 34.88016 | 139.66499 | 12475 ft | 395 kts | 29° |
| 2026-02-17 09:44 | 34.90254 | 139.68378 | 12013 ft | 389 kts | 30° |
| 2026-02-17 09:44 | 34.92458 | 139.70239 | 11557 ft | 383 kts | 30° |
| 2026-02-17 09:45 | 34.94628 | 139.72068 | 11109 ft | 378 kts | 30° |
| 2026-02-17 09:45 | 34.96785 | 139.73885 | 10663 ft | 372 kts | 30° |
| 2026-02-17 09:45 | 34.98892 | 139.75658 | 10228 ft | 366 kts | 30° |
| 2026-02-17 09:45 | 35.00964 | 139.77405 | 9911 ft | 357 kts | 30° |
| 2026-02-17 09:46 | 35.02940 | 139.79075 | 9887 ft | 337 kts | 30° |
| 2026-02-17 09:46 | 35.04803 | 139.80650 | 9870 ft | 316 kts | 29° |
| 2026-02-17 09:46 | 35.06559 | 139.82132 | 9703 ft | 303 kts | 29° |
| 2026-02-17 09:47 | 35.09998 | 139.85028 | 8820 ft | 298 kts | 30° |
| 2026-02-17 09:47 | 35.11672 | 139.86442 | 8378 ft | 296 kts | 30° |
| 2026-02-17 09:47 | 35.13375 | 139.87882 | 7926 ft | 294 kts | 30° |
| 2026-02-17 09:47 | 35.15052 | 139.89303 | 7472 ft | 287 kts | 31° |
| 2026-02-17 09:48 | 35.16668 | 139.90672 | 7035 ft | 280 kts | 31° |
| 2026-02-17 09:48 | 35.18238 | 139.92003 | 6608 ft | 273 kts | 31° |
| 2026-02-17 09:48 | 35.19779 | 139.93308 | 6188 ft | 265 kts | 32° |
| 2026-02-17 09:48 | 35.21277 | 139.94579 | 5778 ft | 259 kts | 32° |
| 2026-02-17 09:49 | 35.22749 | 139.95826 | 5377 ft | 263 kts | 33° |
| 2026-02-17 09:49 | 35.24245 | 139.97085 | 4991 ft | 258 kts | 30° |
| 2026-02-17 09:49 | 35.25881 | 139.97614 | 4866 ft | 241 kts | 351° |
| 2026-02-17 09:49 | 35.27462 | 139.96982 | 4865 ft | 241 kts | 332° |
| 2026-02-17 09:50 | 35.28938 | 139.96026 | 4861 ft | 240 kts | 328° |
| 2026-02-17 09:50 | 35.30394 | 139.95014 | 4860 ft | 240 kts | 327° |
| 2026-02-17 09:50 | 35.31828 | 139.93956 | 4860 ft | 240 kts | 327° |
| 2026-02-17 09:51 | 35.34718 | 139.91890 | 4413 ft | 237 kts | 328° |
| 2026-02-17 09:51 | 35.36106 | 139.90917 | 4126 ft | 222 kts | 328° |
| 2026-02-17 09:51 | 35.37397 | 139.90012 | 3822 ft | 208 kts | 328° |
| 2026-02-17 09:51 | 35.38597 | 139.89169 | 3530 ft | 189 kts | 328° |
| 2026-02-17 09:52 | 35.39697 | 139.88395 | 3274 ft | 178 kts | 327° |
| 2026-02-17 09:52 | 35.40724 | 139.87674 | 3021 ft | 161 kts | 327° |
| 2026-02-17 09:52 | 35.41655 | 139.87019 | 2772 ft | 151 kts | 327° |
| 2026-02-17 09:52 | 35.42603 | 139.86348 | 2571 ft | 161 kts | 332° |
| 2026-02-17 09:53 | 35.43595 | 139.85652 | 2336 ft | 165 kts | 332° |
| 2026-02-17 09:53 | 35.44579 | 139.84959 | 2104 ft | 164 kts | 332° |
| 2026-02-17 09:53 | 35.45562 | 139.84267 | 1878 ft | 163 kts | 332° |
| 2026-02-17 09:53 | 35.46542 | 139.83577 | 1655 ft | 162 kts | 332° |
| 2026-02-17 09:54 | 35.47514 | 139.82892 | 1426 ft | 154 kts | 332° |
| 2026-02-17 09:54 | 35.48385 | 139.82277 | 1217 ft | 137 kts | 335° |
| 2026-02-17 09:54 | 35.49185 | 139.81714 | 1060 ft | 133 kts | 335° |
| 2026-02-17 09:55 | 35.50787 | 139.80573 | 655 ft | 133 kts | 335° |
| 2026-02-17 09:55 | 35.51585 | 139.80020 | 504 ft | 132 kts | 335° |
| 2026-02-17 09:55 | 35.52384 | 139.79443 | 362 ft | 132 kts | 336° |
| 2026-02-17 09:55 | 35.53189 | 139.78891 | 194 ft | 133 kts | 334° |
| 2026-02-17 09:56 | 35.53984 | 139.78331 | 20 ft | 126 kts | 332° |
| 2026-02-17 09:56 | 35.54522 | 139.77961 | 22 ft | 57 kts | 336° |
| 2026-02-17 09:56 | 35.54765 | 139.77910 | 23 ft | 14 kts | 19° |
| 2026-02-17 09:56 | 35.54802 | 139.77958 | 23 ft | 4 kts | 74° |
| 2026-02-17 09:57 | 35.54802 | 139.77989 | 22 ft | 4 kts | 103° |
| 2026-02-17 09:57 | 35.54785 | 139.78013 | 22 ft | 4 kts | 145° |
| 2026-02-17 09:57 | 35.54756 | 139.78037 | 22 ft | 5 kts | 145° |
| 2026-02-17 09:57 | 35.54719 | 139.78068 | 22 ft | 8 kts | 147° |
| 2026-02-17 09:58 | 35.54666 | 139.78106 | 22 ft | 10 kts | 149° |
| 2026-02-17 09:58 | 35.54598 | 139.78154 | 21 ft | 12 kts | 150° |
| 2026-02-17 09:58 | 35.54517 | 139.78212 | 21 ft | 15 kts | 149° |
| 2026-02-17 09:59 | 35.54321 | 139.78350 | 20 ft | 17 kts | 150° |
| 2026-02-17 09:59 | 35.54245 | 139.78444 | 20 ft | 16 kts | 84° |
| 2026-02-17 09:59 | 35.54295 | 139.78561 | 19 ft | 15 kts | 59° |
| 2026-02-17 09:59 | 35.54347 | 139.78669 | 19 ft | 12 kts | 60° |
| 2026-02-17 10:00 | 35.54381 | 139.78741 | 19 ft | 6 kts | 60° |
| 2026-02-17 10:00 | 35.54396 | 139.78773 | 19 ft | 0 kts | 60° |
| 2026-02-17 10:00 | 35.54399 | 139.78778 | 19 ft | 3 kts | 52° |
| 2026-02-17 10:01 | 35.54423 | 139.78789 | 19 ft | 4 kts | 349° |
| 2026-02-17 10:01 | 35.54455 | 139.78769 | 19 ft | 6 kts | 329° |
| 2026-02-17 10:01 | 35.54493 | 139.78742 | 19 ft | 7 kts | 330° |
| 2026-02-17 10:01 | 35.54533 | 139.78714 | 19 ft | 6 kts | 330° |
| 2026-02-17 10:02 | 35.54545 | 139.78706 | 19 ft | 0 kts | 330° |